createdAt,value
2024-01-20T00:00:15.994Z,93.18
2024-01-20T00:01:18.191Z,93.71
2024-01-20T00:02:21.504Z,93.75
2024-01-20T00:03:24.202Z,93.46
2024-01-20T00:04:26.338Z,93.58
2024-01-20T00:05:28.445Z,93.23
2024-01-20T00:06:30.551Z,93.66
2024-01-20T00:07:33.435Z,93.05
2024-01-20T00:08:35.733Z,93.39
2024-01-20T00:09:46.217Z,93.38
2024-01-20T00:10:52.822Z,93.90
2024-01-20T00:11:54.943Z,93.28
2024-01-20T00:12:57.146Z,93.51
2024-01-20T00:13:59.238Z,93.56
2024-01-20T00:15:02.467Z,93.67
2024-01-20T00:16:05.053Z,93.30
2024-01-20T00:17:13.331Z,93.44
2024-01-20T00:18:25.328Z,93.43
2024-01-20T00:19:27.418Z,93.61
2024-01-20T00:20:29.747Z,93.85
2024-01-20T00:21:31.992Z,93.50
2024-01-20T00:22:34.049Z,93.78
2024-01-20T00:23:38.363Z,93.70
2024-01-20T00:24:40.456Z,93.21
2024-01-20T00:25:42.530Z,93.41
2024-01-20T00:26:44.553Z,93.98
2024-01-20T00:27:46.700Z,93.57
2024-01-20T00:28:48.687Z,93.82
2024-01-20T00:29:50.784Z,94.06
2024-01-20T00:30:52.892Z,93.81
2024-01-20T00:31:55.343Z,93.54
2024-01-20T00:32:57.411Z,93.68
2024-01-20T00:33:59.527Z,93.55
2024-01-20T00:35:07.112Z,93.64
2024-01-20T00:36:10.492Z,93.34
2024-01-20T00:37:12.482Z,93.50
2024-01-20T00:38:14.705Z,93.25
2024-01-20T00:39:16.847Z,93.73
2024-01-20T00:40:18.911Z,93.62
2024-01-20T00:41:22.690Z,93.27
2024-01-20T00:42:24.912Z,93.87
2024-01-20T00:43:26.867Z,93.71
2024-01-20T00:44:28.870Z,93.84
2024-01-20T00:45:30.849Z,93.30
2024-01-20T00:46:32.839Z,93.71
2024-01-20T00:47:37.736Z,93.57
2024-01-20T00:48:41.398Z,93.33
2024-01-20T00:49:43.485Z,93.52
2024-01-20T00:50:45.515Z,93.94
2024-01-20T00:51:47.532Z,93.98
2024-01-20T00:52:49.547Z,93.70
2024-01-20T00:53:51.532Z,93.67
2024-01-20T00:54:53.586Z,94.22
2024-01-20T00:55:55.618Z,93.76
2024-01-20T00:56:57.625Z,94.10
2024-01-20T00:57:59.639Z,94.30
2024-01-20T00:59:01.679Z,93.79
2024-01-20T01:00:09.630Z,93.91
2024-01-20T01:01:11.695Z,94.37
2024-01-20T01:02:16.599Z,93.72
2024-01-20T01:03:18.718Z,93.91
2024-01-20T01:04:21.175Z,94.15
2024-01-20T01:06:25.251Z,94.04
2024-01-20T01:07:27.244Z,94.40
2024-01-20T01:08:29.223Z,94.06
2024-01-20T01:09:31.226Z,94.46
2024-01-20T01:10:33.185Z,93.75
2024-01-20T01:11:35.169Z,93.92
2024-01-20T01:12:37.219Z,94.32
2024-01-20T01:13:40.418Z,93.78
2024-01-20T01:14:42.387Z,93.94
2024-01-20T01:15:44.388Z,94.25
2024-01-20T01:16:47.457Z,94.55
2024-01-20T01:17:49.490Z,94.37
2024-01-20T01:18:51.485Z,94.30
2024-01-20T01:19:53.552Z,94.45
2024-01-20T01:20:55.675Z,94.15
2024-01-20T01:21:57.665Z,94.31
2024-01-20T01:23:00.192Z,94.43
2024-01-20T01:24:02.260Z,94.23
2024-01-20T01:25:05.055Z,94.20
2024-01-20T01:26:07.705Z,94.54
2024-01-20T01:27:09.793Z,94.36
2024-01-20T01:28:11.809Z,94.52
2024-01-20T01:29:13.806Z,94.74
2024-01-20T01:30:15.929Z,95.06
2024-01-20T01:31:17.940Z,94.50
2024-01-20T01:32:20.561Z,94.67
2024-01-20T01:33:22.816Z,95.11
2024-01-20T01:34:25.194Z,95.08
2024-01-20T01:35:27.221Z,95.34
2024-01-20T01:36:29.214Z,94.58
2024-01-20T01:37:31.193Z,94.88
2024-01-20T01:38:33.391Z,94.64
2024-01-20T01:39:35.382Z,94.91
2024-01-20T01:40:37.418Z,94.94
2024-01-20T01:41:39.480Z,95.21
2024-01-20T01:42:41.489Z,94.97
2024-01-20T01:43:43.527Z,94.72
2024-01-20T01:44:45.680Z,94.45
2024-01-20T01:45:47.685Z,95.13
2024-01-20T01:46:50.154Z,94.94
2024-01-20T01:47:54.556Z,94.91
2024-01-20T01:48:57.446Z,95.22
2024-01-20T01:49:59.647Z,94.81
2024-01-20T01:51:04.663Z,95.23
2024-01-20T01:52:07.429Z,95.21
2024-01-20T01:53:09.529Z,94.92
2024-01-20T01:54:13.055Z,94.85
2024-01-20T01:55:16.655Z,95.28
2024-01-20T01:56:18.666Z,95.33
2024-01-20T01:57:22.027Z,95.12
2024-01-20T01:58:25.483Z,95.07
2024-01-20T01:59:30.712Z,95.28
2024-01-20T02:00:32.846Z,95.12
2024-01-20T02:01:34.874Z,95.28
2024-01-20T02:02:36.852Z,95.34
2024-01-20T02:03:40.026Z,95.36
2024-01-20T02:04:42.131Z,95.29
2024-01-20T02:05:44.315Z,95.59
2024-01-20T02:06:46.512Z,96.01
2024-01-20T02:07:49.506Z,95.45
2024-01-20T02:08:51.674Z,95.31
2024-01-20T02:09:53.752Z,95.93
2024-01-20T02:10:56.920Z,95.71
2024-01-20T02:11:59.904Z,95.72
2024-01-20T02:13:02.090Z,95.75
2024-01-20T02:14:04.510Z,95.80
2024-01-20T02:15:07.468Z,96.05
2024-01-20T02:16:09.491Z,96.25
2024-01-20T02:17:11.545Z,96.49
2024-01-20T02:18:13.591Z,96.77
2024-01-20T02:19:15.694Z,96.60
2024-01-20T02:20:17.810Z,96.56
2024-01-20T02:21:19.820Z,96.53
2024-01-20T02:22:21.801Z,97.01
2024-01-20T02:23:24.146Z,97.00
2024-01-20T02:24:26.141Z,97.10
2024-01-20T02:25:28.130Z,97.04
2024-01-20T02:26:30.233Z,97.25
2024-01-20T02:27:32.370Z,97.13
2024-01-20T02:28:34.610Z,96.74
2024-01-20T02:29:39.503Z,96.94
2024-01-20T02:30:42.336Z,97.18
2024-01-20T02:31:44.310Z,97.42
2024-01-20T02:32:46.485Z,97.27
2024-01-20T02:33:48.859Z,97.04
2024-01-20T02:34:50.969Z,97.16
2024-01-20T02:35:52.982Z,97.09
2024-01-20T02:36:55.071Z,97.22
2024-01-20T02:37:57.172Z,97.01
2024-01-20T02:38:59.229Z,96.80
2024-01-20T02:40:01.297Z,97.13
2024-01-20T02:41:03.507Z,96.93
2024-01-20T02:42:09.610Z,97.33
2024-01-20T02:43:11.821Z,96.76
2024-01-20T02:44:14.168Z,96.99
2024-01-20T02:45:16.201Z,96.93
2024-01-20T02:46:18.238Z,96.76
2024-01-20T02:47:20.326Z,96.80
2024-01-20T02:48:22.401Z,97.19
2024-01-20T02:49:24.605Z,97.01
2024-01-20T02:50:26.764Z,96.94
2024-01-20T02:51:28.877Z,96.80
2024-01-20T02:52:31.053Z,96.74
2024-01-20T02:53:33.042Z,96.59
2024-01-20T02:54:35.095Z,96.79
2024-01-20T02:55:37.170Z,96.95
2024-01-20T02:56:39.132Z,96.68
2024-01-20T02:57:41.165Z,96.92
2024-01-20T02:58:43.153Z,96.91
2024-01-20T02:59:45.135Z,97.27
2024-01-20T03:00:47.240Z,97.25
2024-01-20T03:01:49.371Z,96.91
2024-01-20T03:02:51.370Z,96.99
2024-01-20T03:03:53.461Z,96.64
2024-01-20T03:04:55.489Z,96.45
2024-01-20T03:05:57.586Z,96.28
2024-01-20T03:06:59.587Z,96.39
2024-01-20T03:08:01.568Z,96.57
2024-01-20T03:09:03.768Z,96.86
2024-01-20T03:10:06.346Z,96.81
2024-01-20T03:11:08.315Z,96.95
2024-01-20T03:12:10.320Z,96.94
2024-01-20T03:13:12.336Z,96.94
2024-01-20T03:14:14.312Z,97.01
2024-01-20T03:15:16.469Z,96.79
2024-01-20T03:16:18.504Z,97.05
2024-01-20T03:17:20.471Z,96.94
2024-01-20T03:18:22.607Z,96.93
2024-01-20T03:19:24.633Z,97.13
2024-01-20T03:20:26.608Z,97.31
2024-01-20T03:21:28.822Z,96.78
2024-01-20T03:22:30.841Z,96.70
2024-01-20T03:23:33.289Z,96.94
2024-01-20T03:24:35.289Z,97.10
2024-01-20T03:25:37.346Z,97.10
2024-01-20T03:26:39.402Z,97.28
2024-01-20T03:27:41.559Z,96.91
2024-01-20T03:28:44.112Z,97.02
2024-01-20T03:29:46.137Z,97.27
2024-01-20T03:30:48.208Z,97.62
2024-01-20T03:31:50.356Z,97.34
2024-01-20T03:32:52.645Z,97.47
2024-01-20T03:33:55.003Z,97.97
2024-01-20T03:34:57.116Z,97.43
2024-01-20T03:35:59.203Z,97.46
2024-01-20T03:37:01.344Z,97.74
2024-01-20T03:38:03.569Z,98.09
2024-01-20T03:39:05.600Z,98.09
2024-01-20T03:40:08.511Z,98.45
2024-01-20T03:41:10.485Z,98.55
2024-01-20T03:42:12.510Z,98.54
2024-01-20T03:43:14.507Z,98.36
2024-01-20T03:44:16.487Z,98.62
2024-01-20T03:45:18.483Z,98.81
2024-01-20T03:46:20.540Z,98.46
2024-01-20T03:47:22.523Z,98.47
2024-01-20T03:48:24.766Z,98.47
2024-01-20T03:49:27.127Z,98.38
2024-01-20T03:50:29.284Z,98.79
2024-01-20T03:51:31.398Z,98.99
2024-01-20T03:52:33.388Z,98.42
2024-01-20T03:53:35.356Z,98.18
2024-01-20T03:54:37.340Z,98.67
2024-01-20T03:55:39.313Z,98.73
2024-01-20T03:56:45.058Z,98.43
2024-01-20T03:57:47.175Z,97.87
2024-01-20T03:58:49.141Z,98.08
2024-01-20T03:59:51.215Z,98.27
2024-01-20T04:00:53.250Z,97.85
2024-01-20T04:01:55.288Z,98.00
2024-01-20T04:02:58.081Z,98.21
2024-01-20T04:04:00.168Z,97.83
2024-01-20T04:05:02.393Z,98.28
2024-01-20T04:06:05.316Z,98.01
2024-01-20T04:07:07.286Z,98.08
2024-01-20T04:08:09.260Z,98.60
2024-01-20T04:09:12.289Z,98.27
2024-01-20T04:10:14.470Z,98.27
2024-01-20T04:11:16.745Z,98.23
2024-01-20T04:12:19.680Z,97.99
2024-01-20T04:13:21.683Z,97.75
2024-01-20T04:14:23.684Z,97.67
2024-01-20T04:15:25.692Z,97.98
2024-01-20T04:16:27.674Z,97.74
2024-01-20T04:17:29.701Z,97.75
2024-01-20T04:18:31.812Z,97.47
2024-01-20T04:19:34.109Z,98.06
2024-01-20T04:20:36.130Z,97.82
2024-01-20T04:21:38.416Z,97.98
2024-01-20T04:22:40.432Z,98.02
2024-01-20T04:23:42.404Z,97.80
2024-01-20T04:24:44.380Z,97.63
2024-01-20T04:25:46.407Z,98.12
2024-01-20T04:26:48.380Z,97.64
2024-01-20T04:27:50.343Z,98.35
2024-01-20T04:28:52.321Z,98.10
2024-01-20T04:29:54.317Z,98.18
2024-01-20T04:30:56.337Z,98.32
2024-01-20T04:31:58.305Z,98.26
2024-01-20T04:33:00.394Z,98.31
2024-01-20T04:34:02.468Z,98.84
2024-01-20T04:35:05.637Z,98.75
2024-01-20T04:36:08.033Z,98.60
2024-01-20T04:37:10.022Z,98.95
2024-01-20T04:38:12.011Z,98.81
2024-01-20T04:39:14.043Z,98.70
2024-01-20T04:40:16.021Z,98.71
2024-01-20T04:41:18.011Z,98.27
2024-01-20T04:42:20.080Z,98.79
2024-01-20T04:43:22.077Z,98.73
2024-01-20T04:44:24.084Z,99.04
2024-01-20T04:45:26.091Z,99.27
2024-01-20T04:46:28.071Z,99.33
2024-01-20T04:47:30.199Z,99.12
2024-01-20T04:48:32.434Z,99.59
2024-01-20T04:49:34.740Z,99.34
2024-01-20T04:50:36.906Z,99.42
2024-01-20T04:51:38.944Z,99.15
2024-01-20T04:52:40.959Z,99.31
2024-01-20T04:53:43.031Z,98.80
2024-01-20T04:54:45.013Z,98.84
2024-01-20T04:55:47.037Z,99.11
2024-01-20T04:56:49.069Z,99.09
2024-01-20T04:57:51.063Z,99.10
2024-01-20T04:58:54.777Z,99.19
2024-01-20T04:59:56.783Z,99.29
2024-01-20T05:00:58.985Z,99.64
2024-01-20T05:02:00.993Z,99.57
2024-01-20T05:03:03.129Z,99.39
2024-01-20T05:04:05.317Z,99.19
2024-01-20T05:05:07.437Z,99.68
2024-01-20T05:06:09.671Z,99.20
2024-01-20T05:07:11.948Z,99.81
2024-01-20T05:08:14.021Z,99.85
2024-01-20T05:09:16.577Z,100.00
2024-01-20T05:10:18.636Z,100.00
2024-01-20T05:11:20.637Z,100.00
2024-01-20T05:12:22.789Z,100.00
2024-01-20T05:13:24.839Z,100.00
2024-01-20T05:14:26.850Z,100.00
2024-01-20T05:15:28.878Z,100.00
2024-01-20T05:16:30.880Z,100.00
2024-01-20T05:17:32.858Z,100.00
2024-01-20T05:18:35.015Z,100.00
2024-01-20T05:19:42.744Z,100.00
2024-01-20T05:20:44.772Z,100.00
2024-01-20T05:21:46.737Z,100.00
2024-01-20T05:22:49.055Z,100.00
2024-01-20T05:23:51.080Z,100.00
2024-01-20T05:24:53.056Z,100.00
2024-01-20T05:25:55.050Z,100.00
2024-01-20T05:26:57.131Z,100.00
2024-01-20T05:27:59.132Z,99.86
2024-01-20T05:29:01.101Z,100.00
2024-01-20T05:30:03.493Z,100.00
2024-01-20T05:31:05.525Z,100.00
2024-01-20T05:32:07.506Z,99.85
2024-01-20T05:33:09.789Z,100.00
2024-01-20T05:34:12.223Z,100.00
2024-01-20T05:35:14.615Z,100.00
2024-01-20T05:36:16.604Z,100.00
2024-01-20T05:37:18.651Z,99.99
2024-01-20T05:38:20.630Z,99.68
2024-01-20T05:39:22.647Z,99.96
2024-01-20T05:40:24.629Z,99.65
2024-01-20T05:41:26.634Z,100.00
2024-01-20T05:42:28.723Z,100.00
2024-01-20T05:43:30.770Z,100.00
2024-01-20T05:44:32.744Z,100.00
2024-01-20T05:45:34.806Z,100.00
2024-01-20T05:46:36.839Z,100.00
2024-01-20T05:47:38.909Z,100.00
2024-01-20T05:48:41.174Z,100.00
2024-01-20T05:49:43.661Z,100.00
2024-01-20T05:50:46.878Z,99.92
2024-01-20T05:51:49.742Z,100.00
2024-01-20T05:52:51.732Z,100.00
2024-01-20T05:53:53.714Z,100.00
2024-01-20T05:54:55.716Z,100.00
2024-01-20T05:55:57.722Z,100.00
2024-01-20T05:56:59.751Z,100.00
2024-01-20T05:58:01.759Z,100.00
2024-01-20T05:59:03.733Z,100.00
2024-01-20T06:00:06.317Z,100.00
2024-01-20T06:01:10.868Z,99.81
2024-01-20T06:02:12.877Z,99.91
2024-01-20T06:03:15.088Z,99.78
2024-01-20T06:04:20.637Z,99.59
2024-01-20T06:05:23.163Z,99.75
2024-01-20T06:06:25.312Z,100.00
2024-01-20T06:07:27.342Z,99.74
2024-01-20T06:08:29.361Z,99.83
2024-01-20T06:09:31.382Z,99.66
2024-01-20T06:10:33.444Z,99.51
2024-01-20T06:11:35.443Z,99.85
2024-01-20T06:12:37.455Z,99.76
2024-01-20T06:13:39.459Z,99.80
2024-01-20T06:14:41.452Z,99.76
2024-01-20T06:15:43.480Z,99.89
2024-01-20T06:16:45.941Z,99.87
2024-01-20T06:17:47.947Z,100.00
2024-01-20T06:18:50.085Z,100.00
2024-01-20T06:19:52.166Z,100.00
2024-01-20T06:20:54.228Z,100.00
2024-01-20T06:21:56.198Z,100.00
2024-01-20T06:22:58.188Z,100.00
2024-01-20T06:24:00.240Z,100.00
2024-01-20T06:25:02.310Z,100.00
2024-01-20T06:26:04.534Z,100.00
2024-01-20T06:27:06.575Z,100.00
2024-01-20T06:28:09.055Z,100.00
2024-01-20T06:29:12.782Z,100.00
2024-01-20T06:30:14.981Z,100.00
2024-01-20T06:31:27.598Z,100.00
2024-01-20T06:32:29.597Z,100.00
2024-01-20T06:33:31.734Z,100.00
2024-01-20T06:34:33.919Z,100.00
2024-01-20T06:35:36.092Z,100.00
2024-01-20T06:36:40.993Z,100.00
2024-01-20T06:37:42.985Z,100.00
2024-01-20T06:38:45.030Z,100.00
2024-01-20T06:39:47.435Z,100.00
2024-01-20T06:40:49.438Z,100.00
2024-01-20T06:41:51.660Z,100.00
2024-01-20T06:42:53.636Z,100.00
2024-01-20T06:43:55.618Z,100.00
2024-01-20T06:44:59.204Z,100.00
2024-01-20T06:46:01.681Z,100.00
2024-01-20T06:47:03.707Z,100.00
2024-01-20T06:48:06.380Z,100.00
2024-01-20T06:49:08.706Z,100.00
2024-01-20T06:50:12.810Z,100.00
2024-01-20T06:51:17.536Z,100.00
2024-01-20T06:52:19.583Z,100.00
2024-01-20T06:53:21.576Z,100.00
2024-01-20T06:54:23.725Z,100.00
2024-01-20T06:55:26.235Z,100.00
2024-01-20T06:56:28.209Z,100.00
2024-01-20T06:57:31.082Z,100.00
2024-01-20T06:58:33.265Z,100.00
2024-01-20T06:59:35.237Z,100.00
2024-01-20T07:00:38.204Z,100.00
2024-01-20T07:01:40.493Z,100.00
2024-01-20T07:02:42.494Z,100.00
2024-01-20T07:03:44.533Z,100.00
2024-01-20T07:04:46.568Z,100.00
2024-01-20T07:05:48.584Z,100.00
2024-01-20T07:06:50.652Z,100.00
2024-01-20T07:07:52.710Z,100.00
2024-01-20T07:08:56.107Z,100.00
2024-01-20T07:09:58.494Z,100.00
2024-01-20T07:11:00.522Z,100.00
2024-01-20T07:12:02.558Z,100.00
2024-01-20T07:13:04.635Z,100.00
2024-01-20T07:14:06.617Z,100.00
2024-01-20T07:15:09.227Z,100.00
2024-01-20T07:16:15.847Z,100.00
2024-01-20T07:17:17.848Z,100.00
2024-01-20T07:18:19.860Z,100.00
2024-01-20T07:19:21.898Z,100.00
2024-01-20T07:20:24.405Z,100.00
2024-01-20T07:21:26.594Z,100.00
2024-01-20T07:22:28.625Z,100.00
2024-01-20T07:23:31.165Z,100.00
2024-01-20T07:24:33.196Z,100.00
2024-01-20T07:25:37.864Z,100.00
2024-01-20T07:26:39.876Z,100.00
2024-01-20T07:27:41.835Z,100.00
2024-01-20T07:28:44.142Z,100.00
2024-01-20T07:29:46.125Z,100.00
2024-01-20T07:30:48.129Z,100.00
2024-01-20T07:31:51.420Z,100.00
2024-01-20T07:32:53.465Z,100.00
2024-01-20T07:33:55.754Z,100.00
2024-01-20T07:34:57.950Z,100.00
2024-01-20T07:36:00.092Z,100.00
2024-01-20T07:37:02.097Z,100.00
2024-01-20T07:38:04.968Z,100.00
2024-01-20T07:39:06.945Z,100.00
2024-01-20T07:40:10.687Z,100.00
2024-01-20T07:41:12.735Z,100.00
2024-01-20T07:42:14.805Z,100.00
2024-01-20T07:43:16.812Z,100.00
2024-01-20T07:44:19.272Z,100.00
2024-01-20T07:45:21.395Z,100.00
2024-01-20T07:46:23.390Z,100.00
2024-01-20T07:47:25.368Z,100.00
2024-01-20T07:48:28.721Z,100.00
2024-01-20T07:49:31.273Z,100.00
2024-01-20T07:50:33.377Z,100.00
2024-01-20T07:51:35.513Z,100.00
2024-01-20T07:52:40.684Z,100.00
2024-01-20T07:53:43.065Z,100.00
2024-01-20T07:54:45.107Z,100.00
2024-01-20T07:55:47.097Z,100.00
2024-01-20T07:56:49.079Z,100.00
2024-01-20T07:57:51.047Z,100.00
2024-01-20T07:58:53.029Z,100.00
2024-01-20T07:59:55.088Z,100.00
2024-01-20T08:00:57.172Z,100.00
2024-01-20T08:01:59.163Z,100.00
2024-01-20T08:03:01.189Z,100.00
2024-01-20T08:04:03.533Z,100.00
2024-01-20T08:05:05.747Z,100.00
2024-01-20T08:06:08.598Z,100.00
2024-01-20T08:07:10.705Z,100.00
2024-01-20T08:08:12.742Z,100.00
2024-01-20T08:09:15.954Z,100.00
2024-01-20T08:10:17.971Z,100.00
2024-01-20T08:11:21.599Z,100.00
2024-01-20T08:12:25.007Z,100.00
2024-01-20T08:13:27.039Z,100.00
2024-01-20T08:14:29.011Z,100.00
2024-01-20T08:15:30.978Z,100.00
2024-01-20T08:16:33.003Z,100.00
2024-01-20T08:17:35.024Z,100.00
2024-01-20T08:18:37.188Z,100.00
2024-01-20T08:19:39.331Z,100.00
2024-01-20T08:20:41.333Z,100.00
2024-01-20T08:21:43.320Z,100.00
2024-01-20T08:22:45.738Z,100.00
2024-01-20T08:23:47.722Z,100.00
2024-01-20T08:24:49.709Z,100.00
2024-01-20T08:25:51.713Z,100.00
2024-01-20T08:26:54.188Z,100.00
2024-01-20T08:27:56.277Z,100.00
2024-01-20T08:28:58.276Z,100.00
2024-01-20T08:30:00.520Z,100.00
2024-01-20T08:31:02.737Z,100.00
2024-01-20T08:32:05.179Z,100.00
2024-01-20T08:33:09.201Z,100.00
2024-01-20T08:34:11.653Z,100.00
2024-01-20T08:35:13.686Z,100.00
2024-01-20T08:36:15.684Z,100.00
2024-01-20T08:37:17.733Z,100.00
2024-01-20T08:38:19.764Z,100.00
2024-01-20T08:39:22.209Z,100.00
2024-01-20T08:40:24.421Z,100.00
2024-01-20T08:41:26.412Z,100.00
2024-01-20T08:42:28.618Z,100.00
2024-01-20T08:43:30.659Z,100.00
2024-01-20T08:44:33.341Z,100.00
2024-01-20T08:45:35.362Z,100.00
2024-01-20T08:46:37.375Z,100.00
2024-01-20T08:47:39.336Z,100.00
2024-01-20T08:48:41.537Z,100.00
2024-01-20T08:49:43.804Z,100.00
2024-01-20T08:50:45.811Z,100.00
2024-01-20T08:51:47.790Z,100.00
2024-01-20T08:52:49.797Z,100.00
2024-01-20T08:53:51.853Z,100.00
2024-01-20T08:54:54.772Z,100.00
2024-01-20T08:55:56.819Z,100.00
2024-01-20T08:56:58.823Z,100.00
2024-01-20T08:58:02.819Z,100.00
2024-01-20T08:59:04.829Z,100.00
2024-01-20T09:00:08.358Z,100.00
2024-01-20T09:01:10.415Z,100.00
2024-01-20T09:02:12.476Z,99.95
2024-01-20T09:03:14.588Z,100.00
2024-01-20T09:04:16.645Z,100.00
2024-01-20T09:05:19.085Z,100.00
2024-01-20T09:06:21.697Z,99.93
2024-01-20T09:07:23.739Z,99.43
2024-01-20T09:08:25.709Z,99.35
2024-01-20T09:09:27.754Z,99.27
2024-01-20T09:10:30.277Z,98.92
2024-01-20T09:11:32.275Z,99.07
2024-01-20T09:12:34.307Z,99.02
2024-01-20T09:13:36.387Z,99.16
2024-01-20T09:14:38.373Z,99.28
2024-01-20T09:15:40.528Z,99.33
2024-01-20T09:16:42.589Z,99.54
2024-01-20T09:17:44.600Z,99.53
2024-01-20T09:18:46.810Z,99.65
2024-01-20T09:19:49.062Z,99.84
2024-01-20T09:20:51.122Z,99.82
2024-01-20T09:21:53.112Z,100.00
2024-01-20T09:22:55.134Z,100.00
2024-01-20T09:23:57.139Z,99.57
2024-01-20T09:24:59.775Z,99.28
2024-01-20T09:26:01.784Z,99.14
2024-01-20T09:27:04.239Z,99.29
2024-01-20T09:28:06.974Z,99.58
2024-01-20T09:29:08.959Z,99.48
2024-01-20T09:30:11.341Z,99.71
2024-01-20T09:31:13.425Z,99.93
2024-01-20T09:32:15.468Z,99.81
2024-01-20T09:33:17.608Z,99.94
2024-01-20T09:34:19.834Z,99.66
2024-01-20T09:35:21.903Z,99.88
2024-01-20T09:36:25.146Z,100.00
2024-01-20T09:37:27.258Z,100.00
2024-01-20T09:38:29.623Z,99.94
2024-01-20T09:39:31.646Z,99.34
2024-01-20T09:40:36.151Z,99.14
2024-01-20T09:41:38.146Z,99.15
2024-01-20T09:42:40.788Z,99.26
2024-01-20T09:43:43.795Z,99.27
2024-01-20T09:44:46.413Z,98.70
2024-01-20T09:45:48.534Z,98.51
2024-01-20T09:46:50.973Z,98.65
2024-01-20T09:47:54.006Z,98.46
2024-01-20T09:48:57.682Z,98.37
2024-01-20T09:50:00.031Z,98.39
2024-01-20T09:51:02.810Z,98.56
2024-01-20T09:52:16.443Z,98.40
2024-01-20T09:53:19.062Z,97.94
2024-01-20T09:54:21.731Z,97.97
2024-01-20T09:55:24.794Z,97.94
2024-01-20T09:56:28.077Z,98.17
2024-01-20T09:57:30.211Z,97.57
2024-01-20T09:58:36.084Z,97.87
2024-01-20T09:59:41.266Z,97.48
2024-01-20T10:00:43.822Z,97.31
2024-01-20T10:01:48.023Z,97.27
2024-01-20T10:02:50.077Z,97.00
2024-01-20T10:03:52.662Z,97.41
2024-01-20T10:04:57.863Z,96.95
2024-01-20T10:06:00.259Z,96.33
2024-01-20T10:07:02.562Z,96.45
2024-01-20T10:08:06.861Z,97.07
2024-01-20T10:09:08.925Z,96.09
2024-01-20T10:10:22.945Z,95.87
2024-01-20T10:11:25.091Z,95.67
2024-01-20T10:12:27.247Z,95.89
2024-01-20T10:13:29.378Z,96.39
2024-01-20T10:14:31.367Z,96.29
2024-01-20T10:15:35.278Z,95.20
2024-01-20T10:16:40.212Z,94.48
2024-01-20T10:17:42.236Z,94.64
2024-01-20T10:18:45.059Z,94.62
2024-01-20T10:19:47.605Z,94.72
2024-01-20T10:20:49.610Z,94.58
2024-01-20T10:21:51.786Z,94.76
2024-01-20T10:22:53.773Z,95.58
2024-01-20T10:23:55.829Z,95.89
2024-01-20T10:24:57.850Z,95.58
2024-01-20T10:26:10.599Z,95.58
2024-01-20T10:27:24.275Z,94.83
2024-01-20T10:28:26.283Z,94.56
2024-01-20T10:29:29.528Z,94.22
2024-01-20T10:30:31.770Z,94.08
2024-01-20T10:31:33.976Z,94.29
2024-01-20T10:32:53.206Z,94.63
2024-01-20T10:33:58.099Z,93.93
2024-01-20T10:35:00.470Z,94.50
2024-01-20T10:36:05.909Z,94.10
2024-01-20T10:37:12.593Z,93.68
2024-01-20T10:38:15.605Z,94.36
2024-01-20T10:39:21.119Z,94.57
2024-01-20T10:40:23.131Z,94.00
2024-01-20T10:41:25.567Z,93.82
2024-01-20T10:42:31.781Z,93.49
2024-01-20T10:43:40.617Z,93.46
2024-01-20T10:44:50.007Z,94.21
2024-01-20T10:46:09.954Z,93.96
2024-01-20T10:47:28.253Z,93.84
2024-01-20T10:48:35.252Z,94.91
2024-01-20T10:49:42.133Z,94.56
2024-01-20T10:50:49.527Z,94.35
2024-01-20T10:51:53.080Z,94.83
2024-01-20T10:52:56.319Z,95.04
2024-01-20T10:53:58.829Z,94.78
2024-01-20T10:55:02.213Z,94.66
2024-01-20T10:56:06.304Z,94.48
2024-01-20T10:57:08.468Z,94.37
2024-01-20T10:58:13.358Z,94.46
2024-01-20T10:59:18.894Z,94.87
2024-01-20T11:00:21.707Z,95.14
2024-01-20T11:01:25.003Z,95.33
2024-01-20T11:02:27.494Z,94.69
2024-01-20T11:03:30.440Z,94.50
2024-01-20T11:04:41.609Z,94.67
2024-01-20T11:05:48.665Z,94.52
2024-01-20T11:06:51.136Z,94.50
2024-01-20T11:08:11.063Z,94.26
2024-01-20T11:09:20.382Z,94.33
2024-01-20T11:10:24.688Z,94.19
2024-01-20T11:11:29.132Z,94.43
2024-01-20T11:12:32.644Z,94.70
2024-01-20T11:13:37.700Z,94.49
2024-01-20T11:14:40.117Z,94.38
2024-01-20T11:15:42.653Z,93.74
2024-01-20T11:16:44.954Z,93.96
2024-01-20T11:17:47.227Z,94.07
2024-01-20T11:18:49.942Z,93.43
2024-01-20T11:19:52.504Z,94.20
2024-01-20T11:20:57.206Z,93.96
2024-01-20T11:21:59.258Z,93.88
2024-01-20T11:23:10.224Z,94.07
2024-01-20T11:24:13.698Z,93.89
2024-01-20T11:25:19.230Z,93.81
2024-01-20T11:26:21.223Z,94.09
2024-01-20T11:27:23.588Z,93.87
2024-01-20T11:28:36.624Z,93.24
2024-01-20T11:29:38.688Z,92.92
2024-01-20T11:30:40.773Z,92.13
2024-01-20T11:31:47.802Z,92.04
2024-01-20T11:32:50.716Z,92.56
2024-01-20T11:33:53.162Z,92.71
2024-01-20T11:34:56.636Z,92.39
2024-01-20T11:36:01.097Z,92.35
2024-01-20T11:37:05.244Z,92.37
2024-01-20T11:38:08.285Z,92.51
2024-01-20T11:39:15.323Z,92.96
2024-01-20T11:40:17.479Z,92.84
2024-01-20T11:41:19.599Z,92.50
2024-01-20T11:42:21.661Z,92.60
2024-01-20T11:43:23.787Z,92.30
2024-01-20T11:44:26.358Z,91.99
2024-01-20T11:45:29.780Z,91.98
2024-01-20T11:46:32.101Z,92.58
2024-01-20T11:47:34.332Z,92.50
2024-01-20T11:48:36.529Z,92.39
2024-01-20T11:49:38.853Z,91.95
2024-01-20T11:50:41.001Z,92.43
2024-01-20T11:51:43.152Z,92.46
2024-01-20T11:52:45.245Z,92.21
2024-01-20T11:53:47.278Z,92.31
2024-01-20T11:54:49.961Z,92.51
2024-01-20T11:56:01.485Z,92.53
2024-01-20T11:57:05.485Z,91.76
2024-01-20T11:58:07.600Z,91.48
2024-01-20T11:59:09.673Z,91.52
2024-01-20T12:00:12.611Z,91.20
2024-01-20T12:01:15.318Z,91.53
2024-01-20T12:02:17.700Z,92.19
2024-01-20T12:03:20.711Z,91.80
2024-01-20T12:04:22.982Z,91.75
2024-01-20T12:05:25.302Z,91.66
2024-01-20T12:06:27.672Z,90.80
2024-01-20T12:07:29.918Z,91.10
2024-01-20T12:08:32.360Z,90.77
2024-01-20T12:09:34.749Z,90.86
2024-01-20T12:10:36.849Z,91.18
2024-01-20T12:11:38.888Z,91.23
2024-01-20T12:12:40.928Z,90.68
2024-01-20T12:13:43.780Z,91.16
2024-01-20T12:14:46.198Z,91.50
2024-01-20T12:15:51.399Z,91.04
2024-01-20T12:16:54.883Z,91.07
2024-01-20T12:17:56.992Z,90.47
2024-01-20T12:18:59.160Z,90.76
2024-01-20T12:20:01.759Z,90.22
2024-01-20T12:21:03.842Z,90.59
2024-01-20T12:22:07.961Z,90.47
2024-01-20T12:23:10.007Z,89.29
2024-01-20T12:24:13.020Z,89.54
2024-01-20T12:25:16.361Z,89.69
2024-01-20T12:26:18.408Z,90.39
2024-01-20T12:27:21.093Z,90.46
2024-01-20T12:28:23.196Z,90.41
2024-01-20T12:29:25.229Z,89.94
2024-01-20T12:30:30.101Z,89.72
2024-01-20T12:31:32.184Z,88.84
2024-01-20T12:32:34.392Z,88.90
2024-01-20T12:33:36.531Z,88.83
2024-01-20T12:34:38.986Z,88.81
2024-01-20T12:35:41.210Z,88.41
2024-01-20T12:36:43.348Z,88.26
2024-01-20T12:37:45.425Z,87.94
2024-01-20T12:38:47.520Z,88.27
2024-01-20T12:39:49.739Z,88.25
2024-01-20T12:40:52.078Z,87.58
2024-01-20T12:41:55.176Z,88.18
2024-01-20T12:42:57.589Z,88.21
2024-01-20T12:43:59.833Z,88.66
2024-01-20T12:45:02.056Z,88.56
2024-01-20T12:46:04.153Z,88.53
2024-01-20T12:47:06.233Z,88.44
2024-01-20T12:48:08.393Z,89.00
2024-01-20T12:49:10.788Z,88.11
2024-01-20T12:50:12.959Z,87.72
2024-01-20T12:51:15.045Z,87.39
2024-01-20T12:52:17.133Z,87.70
2024-01-20T12:53:19.196Z,87.26
2024-01-20T12:54:21.285Z,88.07
2024-01-20T12:55:23.635Z,87.54
2024-01-20T12:56:25.669Z,87.84
2024-01-20T12:57:27.772Z,87.85
2024-01-20T12:58:31.336Z,87.73
2024-01-20T12:59:33.378Z,87.67
2024-01-20T13:00:35.534Z,87.86
2024-01-20T13:01:37.617Z,87.64
2024-01-20T13:02:39.985Z,87.82
2024-01-20T13:03:42.102Z,87.96
2024-01-20T13:04:45.026Z,87.71
2024-01-20T13:05:47.281Z,88.06
2024-01-20T13:06:49.452Z,88.70
2024-01-20T13:07:51.550Z,87.71
2024-01-20T13:08:53.591Z,88.20
2024-01-20T13:09:55.661Z,87.66
2024-01-20T13:10:57.704Z,87.31
2024-01-20T13:11:59.811Z,87.59
2024-01-20T13:13:01.974Z,87.07
2024-01-20T13:14:04.311Z,87.46
2024-01-20T13:15:07.001Z,87.14
2024-01-20T13:16:09.283Z,86.81
2024-01-20T13:17:11.427Z,87.06
2024-01-20T13:18:14.599Z,86.45
2024-01-20T13:19:16.837Z,86.58
2024-01-20T13:20:18.948Z,86.64
2024-01-20T13:21:23.276Z,86.61